createdAt,value
2018-09-08T00:00:14.015Z,22.25
2018-09-08T00:01:13.930Z,22.25
2018-09-08T00:02:13.943Z,22.23
2018-09-08T00:03:13.864Z,22.25
2018-09-08T00:04:13.889Z,22.25
2018-09-08T00:05:13.882Z,22.23
2018-09-08T00:06:14.027Z,22.25
2018-09-08T00:07:13.813Z,22.23
2018-09-08T00:08:13.832Z,22.25
2018-09-08T00:09:13.909Z,22.23
2018-09-08T00:10:14.118Z,22.23
2018-09-08T00:11:13.888Z,22.23
2018-09-08T00:12:13.907Z,22.22
2018-09-08T00:13:13.913Z,22.23
2018-09-08T00:14:14.152Z,22.22
2018-09-08T00:15:13.841Z,22.23
2018-09-08T00:16:13.883Z,22.22
2018-09-08T00:17:13.836Z,22.22
2018-09-08T00:18:13.896Z,22.23
2018-09-08T00:19:14.088Z,22.23
2018-09-08T00:20:14.053Z,22.25
2018-09-08T00:21:14.040Z,22.21
2018-09-08T00:22:13.895Z,22.22
2018-09-08T00:23:13.935Z,22.21
2018-09-08T00:24:13.859Z,22.19
2018-09-08T00:25:14.032Z,22.22
2018-09-08T00:26:14.114Z,22.21
2018-09-08T00:27:13.825Z,22.21
2018-09-08T00:28:13.834Z,22.23
2018-09-08T00:29:14.035Z,22.22
2018-09-08T00:30:14.048Z,22.23
2018-09-08T00:31:13.844Z,22.22
2018-09-08T00:32:13.976Z,22.21
2018-09-08T00:33:13.999Z,22.21
2018-09-08T00:34:13.898Z,22.22
2018-09-08T00:35:14.099Z,22.19
2018-09-08T00:36:13.825Z,22.21
2018-09-08T00:37:14.042Z,22.19
2018-09-08T00:38:13.880Z,22.19
2018-09-08T00:39:13.953Z,22.21
2018-09-08T00:40:14.030Z,22.19
2018-09-08T00:41:14.087Z,22.19
2018-09-08T00:42:13.906Z,22.21
2018-09-08T00:43:14.060Z,22.21
2018-09-08T00:44:13.901Z,22.21
2018-09-08T00:45:13.937Z,22.21
2018-09-08T00:46:14.060Z,22.21
2018-09-08T00:47:13.898Z,22.19
2018-09-08T00:48:14.083Z,22.19
2018-09-08T00:49:13.868Z,22.19
2018-09-08T00:50:14.028Z,22.19
2018-09-08T00:51:14.075Z,22.19
2018-09-08T00:52:13.760Z,22.23
2018-09-08T00:53:14.113Z,22.19
2018-09-08T00:54:14.142Z,22.18
2018-09-08T00:55:14.098Z,22.19
2018-09-08T00:56:14.054Z,22.19
2018-09-08T00:57:14.001Z,22.19
2018-09-08T00:58:14.000Z,22.18
2018-09-08T00:59:14.170Z,22.19
2018-09-08T01:00:14.170Z,22.22
2018-09-08T01:01:14.091Z,22.18
2018-09-08T01:02:13.829Z,22.18
2018-09-08T01:03:14.059Z,22.19
2018-09-08T01:04:13.945Z,22.19
2018-09-08T01:05:14.115Z,22.18
2018-09-08T01:06:14.070Z,22.19
2018-09-08T01:07:14.097Z,22.18
2018-09-08T01:08:13.990Z,22.21
2018-09-08T01:09:13.907Z,22.19
2018-09-08T01:10:14.253Z,22.21
2018-09-08T01:11:13.923Z,22.19
2018-09-08T01:12:14.135Z,22.19
2018-09-08T01:13:13.884Z,22.21
2018-09-08T01:14:14.012Z,22.18
2018-09-08T01:15:13.917Z,22.19
2018-09-08T01:16:13.980Z,22.18
2018-09-08T01:17:14.067Z,22.19
2018-09-08T01:18:13.853Z,22.19
2018-09-08T01:19:13.913Z,22.18
2018-09-08T01:20:14.000Z,22.18
2018-09-08T01:21:14.004Z,22.18
2018-09-08T01:22:13.701Z,22.18
2018-09-08T01:23:14.112Z,22.19
2018-09-08T01:24:14.010Z,22.16
2018-09-08T01:25:13.886Z,22.18
2018-09-08T01:26:14.078Z,22.19
2018-09-08T01:27:13.817Z,22.16
2018-09-08T01:28:14.077Z,22.16
2018-09-08T01:29:13.978Z,22.19
2018-09-08T01:30:13.806Z,22.19
2018-09-08T01:31:14.058Z,22.16
2018-09-08T01:32:13.930Z,22.16
2018-09-08T01:33:13.898Z,22.18
2018-09-08T01:34:14.052Z,22.15
2018-09-08T01:35:13.917Z,22.16
2018-09-08T01:36:13.978Z,22.15
2018-09-08T01:37:13.976Z,22.18
2018-09-08T01:38:13.926Z,22.16
2018-09-08T01:39:14.025Z,22.18
2018-09-08T01:40:13.921Z,22.15
2018-09-08T01:41:14.004Z,22.15
2018-09-08T01:42:13.909Z,22.16
2018-09-08T01:43:13.894Z,22.15
2018-09-08T01:44:13.972Z,22.12
2018-09-08T01:45:13.792Z,22.15
2018-09-08T01:46:14.075Z,22.15
2018-09-08T01:47:13.811Z,22.15
2018-09-08T01:48:14.075Z,22.15
2018-09-08T01:49:13.928Z,22.15
2018-09-08T01:50:14.221Z,22.13
2018-09-08T01:51:14.053Z,22.12
2018-09-08T01:52:14.081Z,22.13
2018-09-08T01:53:13.956Z,22.15
2018-09-08T01:54:14.021Z,22.15
2018-09-08T01:55:13.966Z,22.15
2018-09-08T01:56:13.851Z,22.16
2018-09-08T01:57:13.781Z,22.13
2018-09-08T01:58:14.172Z,22.15
2018-09-08T01:59:13.942Z,22.15
2018-09-08T02:00:14.039Z,22.15
2018-09-08T02:01:14.388Z,22.15
2018-09-08T02:02:13.965Z,22.16
2018-09-08T02:03:13.958Z,22.13
2018-09-08T02:04:14.048Z,22.15
2018-09-08T02:05:14.302Z,22.15
2018-09-08T02:06:13.810Z,22.15
2018-09-08T02:07:14.068Z,22.13
2018-09-08T02:08:13.754Z,22.13
2018-09-08T02:09:13.865Z,22.15
2018-09-08T02:10:13.759Z,22.16
2018-09-08T02:11:14.053Z,22.13
2018-09-08T02:12:14.070Z,22.12
2018-09-08T02:13:13.935Z,22.13
2018-09-08T02:14:13.876Z,22.13
2018-09-08T02:15:14.077Z,22.16
2018-09-08T02:16:14.178Z,22.16
2018-09-08T02:17:13.866Z,22.13
2018-09-08T02:18:14.107Z,22.13
2018-09-08T02:19:13.924Z,22.13
2018-09-08T02:20:13.878Z,22.12
2018-09-08T02:21:14.056Z,22.13
2018-09-08T02:22:14.040Z,22.15
2018-09-08T02:23:14.034Z,22.12
2018-09-08T02:24:14.161Z,22.15
2018-09-08T02:25:14.186Z,22.15
2018-09-08T02:26:13.699Z,22.12
2018-09-08T02:27:13.893Z,22.12
2018-09-08T02:28:14.105Z,22.15
2018-09-08T02:29:14.070Z,22.13
2018-09-08T02:30:13.807Z,22.12
2018-09-08T02:31:14.197Z,22.13
2018-09-08T02:32:13.935Z,22.16
2018-09-08T02:33:13.725Z,22.12
2018-09-08T02:34:13.832Z,22.15
2018-09-08T02:35:13.866Z,22.11
2018-09-08T02:36:13.871Z,22.15
2018-09-08T02:37:14.048Z,22.15
2018-09-08T02:38:13.858Z,22.12
2018-09-08T02:39:13.868Z,22.13
2018-09-08T02:40:13.932Z,22.12
2018-09-08T02:41:13.892Z,22.12
2018-09-08T02:42:13.879Z,22.13
2018-09-08T02:43:14.076Z,22.12
2018-09-08T02:44:13.976Z,22.13
2018-09-08T02:45:13.965Z,22.13
2018-09-08T02:46:13.830Z,22.13
2018-09-08T02:47:13.818Z,22.12
2018-09-08T02:48:14.098Z,22.13
2018-09-08T02:49:13.933Z,22.12
2018-09-08T02:50:13.991Z,22.12
2018-09-08T02:51:13.938Z,22.15
2018-09-08T02:52:14.003Z,22.15
2018-09-08T02:53:14.063Z,22.15
2018-09-08T02:54:14.028Z,22.12
2018-09-08T02:55:13.827Z,22.12
2018-09-08T02:56:13.892Z,22.13
2018-09-08T02:57:14.005Z,22.15
2018-09-08T02:58:13.999Z,22.09
2018-09-08T02:59:13.940Z,22.12
2018-09-08T03:00:13.864Z,22.11
2018-09-08T03:01:14.112Z,22.09
2018-09-08T03:02:13.947Z,22.11
2018-09-08T03:03:14.005Z,22.11
2018-09-08T03:04:13.902Z,22.11
2018-09-08T03:05:13.901Z,22.09
2018-09-08T03:06:14.165Z,22.11
2018-09-08T03:07:14.257Z,22.09
2018-09-08T03:08:14.164Z,22.12
2018-09-08T03:09:14.068Z,22.09
2018-09-08T03:10:14.067Z,22.09
2018-09-08T03:11:13.980Z,22.09
2018-09-08T03:12:13.890Z,22.11
2018-09-08T03:13:14.085Z,22.08
2018-09-08T03:14:13.827Z,22.08
2018-09-08T03:15:14.197Z,22.09
2018-09-08T03:16:13.960Z,22.09
2018-09-08T03:17:13.952Z,22.11
2018-09-08T03:18:14.187Z,22.08
2018-09-08T03:19:13.902Z,22.09
2018-09-08T03:20:13.955Z,22.11
2018-09-08T03:21:13.748Z,22.11
2018-09-08T03:22:13.727Z,22.11
2018-09-08T03:23:13.941Z,22.09
2018-09-08T03:24:13.788Z,22.08
2018-09-08T03:25:13.714Z,22.11
2018-09-08T03:26:13.783Z,22.11
2018-09-08T03:27:13.791Z,22.08
2018-09-08T03:28:14.239Z,22.08
2018-09-08T03:29:13.957Z,22.11
2018-09-08T03:30:13.908Z,22.08
2018-09-08T03:31:13.990Z,22.11
2018-09-08T03:32:14.007Z,22.09
2018-09-08T03:33:13.781Z,22.08
2018-09-08T03:34:13.806Z,22.09
2018-09-08T03:35:13.995Z,22.08
2018-09-08T03:36:13.959Z,22.08
2018-09-08T03:37:13.910Z,22.09
2018-09-08T03:38:14.111Z,22.08
2018-09-08T03:39:14.220Z,22.09
2018-09-08T03:40:14.057Z,22.11
2018-09-08T03:41:13.937Z,22.09
2018-09-08T03:42:14.022Z,22.08
2018-09-08T03:43:13.993Z,22.08
2018-09-08T03:44:13.947Z,22.11
2018-09-08T03:45:14.299Z,22.08
2018-09-08T03:46:13.786Z,22.08
2018-09-08T03:47:13.862Z,22.09
2018-09-08T03:48:13.873Z,22.06
2018-09-08T03:49:13.823Z,22.11
2018-09-08T03:50:13.743Z,22.09
2018-09-08T03:51:14.084Z,22.08
2018-09-08T03:52:14.009Z,22.09
2018-09-08T03:53:13.894Z,22.06
2018-09-08T03:54:14.026Z,22.06
2018-09-08T03:55:13.842Z,22.08
2018-09-08T03:56:13.984Z,22.09
2018-09-08T03:57:14.042Z,22.09
2018-09-08T03:58:13.911Z,22.11
2018-09-08T03:59:13.940Z,22.09
2018-09-08T04:00:13.783Z,22.09
2018-09-08T04:01:14.162Z,22.09
2018-09-08T04:02:13.883Z,22.06
2018-09-08T04:03:13.885Z,22.08
2018-09-08T04:04:13.940Z,22.09
2018-09-08T04:05:13.869Z,22.08
2018-09-08T04:06:13.969Z,22.09
2018-09-08T04:07:14.024Z,22.08
2018-09-08T04:08:14.048Z,22.08
2018-09-08T04:09:13.989Z,22.09
2018-09-08T04:10:14.201Z,22.09
2018-09-08T04:11:14.294Z,22.08
2018-09-08T04:12:13.849Z,22.06
2018-09-08T04:13:13.925Z,22.06
2018-09-08T04:14:14.005Z,22.06
2018-09-08T04:15:13.765Z,22.08
2018-09-08T04:16:14.015Z,22.08
2018-09-08T04:17:13.959Z,22.06
2018-09-08T04:18:14.748Z,22.06
2018-09-08T04:19:13.624Z,22.06
2018-09-08T04:20:14.070Z,22.08
2018-09-08T04:21:13.966Z,22.06
2018-09-08T04:22:14.034Z,22.05
2018-09-08T04:23:13.984Z,22.05
2018-09-08T04:24:13.911Z,22.06
2018-09-08T04:25:13.905Z,22.06
2018-09-08T04:26:14.224Z,22.06
2018-09-08T04:27:13.665Z,22.04
2018-09-08T04:28:13.877Z,22.04
2018-09-08T04:29:13.883Z,22.05
2018-09-08T04:30:13.892Z,22.06
2018-09-08T04:31:13.746Z,22.05
2018-09-08T04:32:13.945Z,22.04
2018-09-08T04:33:13.853Z,22.06
2018-09-08T04:34:14.008Z,22.05
2018-09-08T04:35:14.003Z,22.04
2018-09-08T04:36:13.942Z,22.06
2018-09-08T04:37:14.091Z,22.05
2018-09-08T04:38:14.048Z,22.06
2018-09-08T04:39:14.071Z,22.05
2018-09-08T04:40:13.877Z,22.05
2018-09-08T04:41:13.923Z,22.05
2018-09-08T04:42:13.913Z,22.05
2018-09-08T04:43:14.076Z,22.05
2018-09-08T04:44:13.821Z,22.02
2018-09-08T04:45:14.257Z,22.04
2018-09-08T04:46:14.071Z,22.05
2018-09-08T04:47:14.220Z,22.05
2018-09-08T04:48:13.972Z,22.05
2018-09-08T04:49:14.415Z,22.04
2018-09-08T04:50:14.000Z,22.04
2018-09-08T04:51:13.978Z,22.06
2018-09-08T04:52:13.988Z,22.04
2018-09-08T04:53:13.783Z,22.05
2018-09-08T04:54:14.027Z,22.04
2018-09-08T04:55:13.784Z,22.05
2018-09-08T04:56:13.803Z,22.02
2018-09-08T04:57:13.856Z,22.04
2018-09-08T04:58:14.001Z,22.04
2018-09-08T04:59:13.877Z,22.05
2018-09-08T05:00:14.275Z,22.04
2018-09-08T05:01:13.976Z,22.04
2018-09-08T05:02:13.901Z,22.05
2018-09-08T05:03:14.111Z,22.02
2018-09-08T05:04:13.939Z,22.02
2018-09-08T05:05:14.353Z,22.04
2018-09-08T05:06:14.005Z,22.04
2018-09-08T05:07:13.983Z,22.04
2018-09-08T05:08:14.264Z,22.04
2018-09-08T05:09:14.129Z,22.04
2018-09-08T05:10:13.715Z,22.02
2018-09-08T05:11:14.009Z,22.04
2018-09-08T05:12:14.028Z,22.02
2018-09-08T05:13:13.879Z,22.04
2018-09-08T05:14:13.835Z,22.02
2018-09-08T05:15:14.045Z,22.04
2018-09-08T05:16:14.480Z,22.02
2018-09-08T05:17:14.427Z,22.04
2018-09-08T05:18:14.036Z,22.04
2018-09-08T05:19:13.834Z,22.01
2018-09-08T05:20:13.870Z,22.02
2018-09-08T05:21:13.956Z,22.04
2018-09-08T05:22:13.950Z,22.02
2018-09-08T05:23:13.990Z,22.05
2018-09-08T05:24:13.896Z,22.01
2018-09-08T05:25:14.085Z,22.01
2018-09-08T05:26:13.846Z,22.01
2018-09-08T05:27:13.784Z,22.02
2018-09-08T05:28:13.900Z,22.02
2018-09-08T05:29:13.901Z,21.99
2018-09-08T05:30:13.920Z,22.01
2018-09-08T05:31:13.854Z,22.02
2018-09-08T05:32:13.871Z,22.02
2018-09-08T05:33:14.037Z,22.01
2018-09-08T05:34:14.165Z,22.01
2018-09-08T05:35:13.953Z,22.01
2018-09-08T05:36:13.831Z,21.99
2018-09-08T05:37:13.919Z,21.99
2018-09-08T05:38:13.899Z,22.01
2018-09-08T05:39:14.024Z,22.02
2018-09-08T05:40:14.069Z,22.01
2018-09-08T05:41:14.330Z,21.99
2018-09-08T05:42:14.033Z,21.98
2018-09-08T05:43:13.852Z,21.99
2018-09-08T05:44:13.919Z,22.02
2018-09-08T05:45:14.090Z,21.99
2018-09-08T05:46:13.930Z,22.01
2018-09-08T05:47:13.978Z,22.01
2018-09-08T05:48:13.897Z,22.02
2018-09-08T05:49:14.051Z,22.01
2018-09-08T05:50:14.107Z,22.01
2018-09-08T05:51:14.344Z,22.02
2018-09-08T05:52:13.966Z,21.99
2018-09-08T05:53:14.816Z,21.99
2018-09-08T05:54:13.817Z,21.99
2018-09-08T05:55:13.972Z,21.99
2018-09-08T05:56:14.091Z,21.99
2018-09-08T05:57:13.952Z,21.99
2018-09-08T05:58:13.989Z,21.98
2018-09-08T05:59:13.860Z,21.99
2018-09-08T06:00:14.017Z,21.99
2018-09-08T06:01:14.090Z,21.99
2018-09-08T06:02:13.985Z,21.96
2018-09-08T06:03:14.418Z,21.98
2018-09-08T06:04:13.696Z,21.99
2018-09-08T06:05:14.064Z,21.98
2018-09-08T06:06:13.885Z,21.99
2018-09-08T06:07:14.159Z,21.96
2018-09-08T06:08:13.999Z,21.99
2018-09-08T06:09:14.068Z,21.98
2018-09-08T06:10:14.405Z,21.99
2018-09-08T06:11:13.976Z,21.98
2018-09-08T06:12:13.872Z,21.99
2018-09-08T06:13:13.850Z,21.99
2018-09-08T06:14:14.062Z,21.98
2018-09-08T06:15:13.927Z,21.98
2018-09-08T06:16:13.828Z,22.01
2018-09-08T06:17:13.909Z,21.96
2018-09-08T06:18:14.669Z,21.98
2018-09-08T06:19:13.949Z,22.01
2018-09-08T06:20:13.833Z,21.99
2018-09-08T06:21:13.748Z,21.98
2018-09-08T06:22:13.951Z,21.99
2018-09-08T06:23:13.844Z,21.99
2018-09-08T06:24:14.057Z,21.99
2018-09-08T06:25:14.172Z,21.98
2018-09-08T06:26:14.052Z,21.99
2018-09-08T06:27:13.906Z,21.98
2018-09-08T06:28:14.056Z,21.98
2018-09-08T06:29:13.797Z,21.96
2018-09-08T06:30:13.990Z,21.99
2018-09-08T06:31:13.778Z,21.98
2018-09-08T06:32:13.888Z,21.96
2018-09-08T06:33:13.765Z,21.98
2018-09-08T06:34:13.996Z,21.98
2018-09-08T06:35:14.921Z,21.98
2018-09-08T06:36:14.029Z,21.96
2018-09-08T06:37:13.816Z,21.96
2018-09-08T06:38:13.922Z,21.98
2018-09-08T06:39:13.882Z,21.98
2018-09-08T06:40:13.875Z,21.99
2018-09-08T06:41:13.969Z,21.98
2018-09-08T06:42:13.753Z,21.96
2018-09-08T06:43:13.938Z,21.98
2018-09-08T06:44:13.896Z,21.96
2018-09-08T06:45:14.647Z,21.96
2018-09-08T06:46:13.954Z,21.98
2018-09-08T06:47:13.781Z,21.96
2018-09-08T06:48:13.917Z,21.94
2018-09-08T06:49:13.717Z,21.96
2018-09-08T06:50:13.755Z,21.96
2018-09-08T06:51:13.756Z,21.98
2018-09-08T06:52:14.331Z,21.98
2018-09-08T06:53:13.746Z,21.99
2018-09-08T06:54:14.012Z,21.99
2018-09-08T06:55:13.781Z,21.96
2018-09-08T06:56:13.751Z,21.96
2018-09-08T06:57:13.951Z,21.95
2018-09-08T06:58:13.880Z,21.96
2018-09-08T06:59:13.949Z,21.98
2018-09-08T07:00:13.960Z,21.98
2018-09-08T07:01:13.897Z,21.95
2018-09-08T07:02:13.871Z,21.96
2018-09-08T07:03:14.466Z,21.99
2018-09-08T07:04:13.985Z,21.95
2018-09-08T07:05:13.877Z,21.98
2018-09-08T07:06:13.901Z,21.96
2018-09-08T07:07:13.845Z,21.95
2018-09-08T07:08:13.846Z,21.96
2018-09-08T07:09:13.838Z,21.96
2018-09-08T07:10:13.969Z,21.96
2018-09-08T07:11:13.806Z,22.01
2018-09-08T07:12:13.874Z,21.95
2018-09-08T07:13:14.772Z,21.95
2018-09-08T07:14:13.922Z,21.98
2018-09-08T07:15:14.608Z,21.95
2018-09-08T07:16:13.839Z,21.96
2018-09-08T07:17:13.903Z,21.95
2018-09-08T07:18:13.758Z,21.95
2018-09-08T07:19:13.845Z,21.95
2018-09-08T07:20:13.935Z,21.96
2018-09-08T07:21:13.856Z,21.98
2018-09-08T07:22:13.857Z,21.94
2018-09-08T07:23:13.912Z,21.96
2018-09-08T07:24:13.992Z,21.95
2018-09-08T07:25:13.780Z,21.98
2018-09-08T07:26:13.934Z,21.96
2018-09-08T07:27:13.708Z,21.96
2018-09-08T07:28:14.001Z,21.96
2018-09-08T07:29:13.716Z,21.95
2018-09-08T07:30:13.795Z,21.94
2018-09-08T07:31:13.910Z,21.94
2018-09-08T07:32:14.113Z,21.95
2018-09-08T07:33:13.800Z,21.94
2018-09-08T07:34:13.895Z,21.95
2018-09-08T07:35:13.854Z,21.96
2018-09-08T07:36:13.822Z,21.95
2018-09-08T07:37:14.246Z,21.95
2018-09-08T07:38:13.872Z,21.95
2018-09-08T07:39:13.864Z,21.96
2018-09-08T07:40:13.920Z,21.95
2018-09-08T07:41:13.958Z,21.94
2018-09-08T07:42:13.949Z,21.95
2018-09-08T07:43:14.013Z,21.95
2018-09-08T07:44:13.967Z,21.94
2018-09-08T07:45:13.924Z,21.95
2018-09-08T07:46:13.960Z,21.96
2018-09-08T07:47:13.898Z,21.95
2018-09-08T07:48:13.928Z,21.95
2018-09-08T07:49:13.852Z,21.95
2018-09-08T07:50:13.892Z,21.94
2018-09-08T07:51:13.974Z,21.94
2018-09-08T07:52:13.663Z,21.92
2018-09-08T07:53:14.357Z,21.95
2018-09-08T07:54:13.887Z,21.94
2018-09-08T07:55:13.840Z,21.94
2018-09-08T07:56:14.183Z,21.94
2018-09-08T07:57:13.934Z,21.94
2018-09-08T07:58:13.828Z,21.95
2018-09-08T07:59:14.329Z,21.96
2018-09-08T08:00:13.936Z,21.95
2018-09-08T08:01:14.017Z,21.95
2018-09-08T08:02:13.786Z,21.94
2018-09-08T08:03:13.966Z,21.92
2018-09-08T08:04:13.888Z,21.92
2018-09-08T08:05:13.927Z,21.94
2018-09-08T08:06:13.892Z,21.94
2018-09-08T08:07:13.847Z,21.95
2018-09-08T08:08:13.853Z,21.94
2018-09-08T08:09:14.607Z,21.91
2018-09-08T08:10:13.763Z,21.94
2018-09-08T08:11:13.720Z,21.94
2018-09-08T08:12:13.845Z,21.94
2018-09-08T08:13:13.755Z,21.94
2018-09-08T08:14:13.609Z,21.94
2018-09-08T08:15:13.817Z,21.91
2018-09-08T08:16:13.827Z,21.94
2018-09-08T08:17:13.741Z,21.94
2018-09-08T08:18:13.765Z,21.92
2018-09-08T08:19:13.785Z,21.96
2018-09-08T08:20:14.396Z,21.94
2018-09-08T08:21:13.705Z,21.94
2018-09-08T08:22:13.817Z,21.94
2018-09-08T08:23:14.571Z,21.94
2018-09-08T08:24:13.836Z,21.91
2018-09-08T08:25:14.411Z,21.95
2018-09-08T08:26:13.795Z,21.94
2018-09-08T08:27:14.046Z,21.94
2018-09-08T08:28:13.859Z,21.92
2018-09-08T08:29:13.950Z,21.92
2018-09-08T08:30:13.738Z,21.94
2018-09-08T08:31:14.293Z,21.94
2018-09-08T08:32:13.883Z,21.91
2018-09-08T08:33:13.707Z,21.94
2018-09-08T08:34:13.934Z,21.92
2018-09-08T08:35:14.052Z,21.94
2018-09-08T08:36:13.740Z,21.92
2018-09-08T08:37:14.551Z,21.94
2018-09-08T08:38:14.088Z,21.92
2018-09-08T08:39:13.892Z,21.92
2018-09-08T08:40:14.215Z,21.92
2018-09-08T08:41:13.882Z,21.91
2018-09-08T08:42:13.894Z,21.95
2018-09-08T08:43:14.385Z,21.91
2018-09-08T08:44:13.893Z,21.94
2018-09-08T08:45:13.898Z,21.91
2018-09-08T08:46:13.980Z,21.84
2018-09-08T08:47:13.896Z,21.84
2018-09-08T08:48:13.840Z,21.8
2018-09-08T08:49:13.960Z,21.77
2018-09-08T08:50:13.969Z,21.71
2018-09-08T08:51:14.237Z,21.68
2018-09-08T08:52:13.979Z,21.68
2018-09-08T08:53:13.953Z,21.59
2018-09-08T08:54:13.862Z,21.6
2018-09-08T08:55:13.924Z,21.54
2018-09-08T08:56:13.984Z,21.54
2018-09-08T08:57:13.816Z,21.47
2018-09-08T08:58:13.841Z,21.44
2018-09-08T08:59:14.087Z,21.39
2018-09-08T09:00:13.832Z,21.37
2018-09-08T09:01:13.940Z,21.36
2018-09-08T09:02:13.969Z,21.34
2018-09-08T09:03:13.744Z,21.32
2018-09-08T09:04:13.731Z,21.32
2018-09-08T09:05:13.923Z,21.27
2018-09-08T09:06:13.952Z,21.29
2018-09-08T09:07:17.479Z,21.27
2018-09-08T09:08:13.861Z,21.26
2018-09-08T09:09:13.942Z,21.26
2018-09-08T09:10:13.936Z,21.25
2018-09-08T09:11:14.114Z,21.23
2018-09-08T09:12:13.854Z,21.22
2018-09-08T09:13:14.468Z,21.22
2018-09-08T09:14:13.938Z,21.23
2018-09-08T09:15:17.242Z,21.21
2018-09-08T09:16:13.874Z,21.21
2018-09-08T09:17:13.771Z,21.19
2018-09-08T09:18:13.896Z,21.16
2018-09-08T09:19:13.875Z,21.14
2018-09-08T09:20:13.905Z,21.09
2018-09-08T09:21:13.741Z,21.08
2018-09-08T09:22:14.221Z,21.11
2018-09-08T09:23:15.223Z,21.11
2018-09-08T09:24:14.624Z,21.09
2018-09-08T09:25:14.177Z,21.12
2018-09-08T09:26:14.089Z,21.12
2018-09-08T09:27:13.869Z,21.09
2018-09-08T09:28:14.151Z,21.08
2018-09-08T09:29:13.752Z,21.09
2018-09-08T09:30:13.766Z,21.15
2018-09-08T09:31:13.670Z,21.15
2018-09-08T09:32:13.924Z,21.16
2018-09-08T09:33:13.944Z,21.12
2018-09-08T09:34:13.786Z,21.09
2018-09-08T09:35:13.996Z,21.06
2018-09-08T09:36:13.671Z,21.06
2018-09-08T09:37:14.365Z,21.06
2018-09-08T09:38:13.966Z,21.05
2018-09-08T09:39:13.916Z,21.05
2018-09-08T09:40:13.872Z,21.03
2018-09-08T09:41:13.733Z,21.02
2018-09-08T09:42:13.685Z,21.03
2018-09-08T09:43:13.813Z,21.05
2018-09-08T09:44:14.512Z,21.05
2018-09-08T09:45:13.782Z,21.05
2018-09-08T09:46:13.881Z,21.06
2018-09-08T09:47:13.864Z,21.08
2018-09-08T09:48:13.719Z,21.12
2018-09-08T09:49:13.800Z,21.14
2018-09-08T09:50:14.003Z,21.09
2018-09-08T09:51:13.929Z,21.05
2018-09-08T09:52:13.832Z,21.05
2018-09-08T09:53:14.634Z,21.05
2018-09-08T09:54:14.011Z,21.05
2018-09-08T09:55:14.009Z,21.06
2018-09-08T09:56:13.893Z,21.02
2018-09-08T09:57:14.358Z,21.05
2018-09-08T09:58:13.909Z,21.01
2018-09-08T09:59:13.856Z,21.02
2018-09-08T10:00:14.014Z,21.06
2018-09-08T10:01:13.958Z,20.99
2018-09-08T10:02:13.965Z,20.99
2018-09-08T10:03:13.830Z,21.02
2018-09-08T10:04:13.873Z,21.02
2018-09-08T10:05:13.913Z,21.06
2018-09-08T10:06:14.126Z,21.06
2018-09-08T10:07:14.061Z,21.09
2018-09-08T10:08:13.938Z,21.09
2018-09-08T10:09:13.933Z,21.06
2018-09-08T10:10:13.955Z,21.06
2018-09-08T10:11:13.889Z,21.03
2018-09-08T10:12:14.642Z,21.05
2018-09-08T10:13:13.867Z,21.08
2018-09-08T10:14:14.078Z,21.06
2018-09-08T10:15:13.843Z,21.11
2018-09-08T10:16:14.061Z,21.14
2018-09-08T10:17:13.668Z,21.14
2018-09-08T10:18:13.852Z,21.18
2018-09-08T10:19:13.700Z,21.19
2018-09-08T10:20:13.987Z,21.21
2018-09-08T10:21:14.017Z,21.22
2018-09-08T10:22:13.757Z,21.25
2018-09-08T10:23:14.410Z,21.27
2018-09-08T10:24:13.797Z,21.27
2018-09-08T10:25:14.007Z,21.27
2018-09-08T10:26:14.180Z,21.3
2018-09-08T10:27:13.931Z,21.32
2018-09-08T10:28:13.718Z,21.3
2018-09-08T10:29:13.863Z,21.32
2018-09-08T10:30:13.814Z,21.34
2018-09-08T10:31:14.284Z,21.36
2018-09-08T10:32:18.100Z,21.37
2018-09-08T10:33:14.157Z,21.36
2018-09-08T10:34:13.822Z,21.4
2018-09-08T10:35:13.860Z,21.39
2018-09-08T10:36:13.788Z,21.42
2018-09-08T10:37:14.092Z,21.42
2018-09-08T10:38:13.809Z,21.43
2018-09-08T10:39:14.178Z,21.43
2018-09-08T10:40:14.490Z,21.43
2018-09-08T10:41:13.820Z,21.47
2018-09-08T10:42:13.789Z,21.47
2018-09-08T10:43:14.199Z,21.43
2018-09-08T10:44:13.898Z,21.46
2018-09-08T10:45:13.794Z,21.44
2018-09-08T10:46:13.628Z,21.43
2018-09-08T10:47:13.849Z,21.44
2018-09-08T10:48:13.888Z,21.46
2018-09-08T10:49:13.734Z,21.44
2018-09-08T10:50:13.708Z,21.43
2018-09-08T10:51:13.828Z,21.43
2018-09-08T10:52:13.964Z,21.43
2018-09-08T10:53:13.762Z,21.42
2018-09-08T10:54:13.977Z,21.43
2018-09-08T10:55:13.858Z,21.44
2018-09-08T10:56:13.852Z,21.44
2018-09-08T10:57:13.775Z,21.44
2018-09-08T10:58:13.883Z,21.44
2018-09-08T10:59:13.668Z,21.44
2018-09-08T11:00:13.820Z,21.44
2018-09-08T11:01:14.017Z,21.46
2018-09-08T11:02:16.928Z,21.44
2018-09-08T11:03:13.862Z,21.43
2018-09-08T11:04:14.036Z,21.46
2018-09-08T11:05:13.828Z,21.44
2018-09-08T11:06:13.821Z,21.43
2018-09-08T11:07:13.740Z,21.44
2018-09-08T11:08:14.120Z,21.46
2018-09-08T11:09:14.083Z,21.47
2018-09-08T11:10:13.976Z,21.44
2018-09-08T11:11:13.896Z,21.44
2018-09-08T11:12:13.849Z,21.43
2018-09-08T11:13:13.883Z,21.44
2018-09-08T11:14:13.964Z,21.43
2018-09-08T11:15:13.937Z,21.43
2018-09-08T11:16:13.770Z,21.44
2018-09-08T11:17:13.985Z,21.46
2018-09-08T11:18:13.855Z,21.46
2018-09-08T11:19:13.824Z,21.46
2018-09-08T11:20:14.210Z,21.44
2018-09-08T11:21:13.871Z,21.47
2018-09-08T11:22:13.871Z,21.46
2018-09-08T11:23:13.859Z,21.47
2018-09-08T11:24:14.368Z,21.47
2018-09-08T11:25:13.704Z,21.47
2018-09-08T11:26:14.148Z,21.44
2018-09-08T11:27:14.024Z,21.44
2018-09-08T11:28:14.057Z,21.47
2018-09-08T11:29:13.885Z,21.47
2018-09-08T11:30:14.004Z,21.49
2018-09-08T11:31:13.993Z,21.49
2018-09-08T11:32:13.897Z,21.47
2018-09-08T11:33:13.882Z,21.47
2018-09-08T11:34:13.780Z,21.47
2018-09-08T11:35:14.463Z,21.47
2018-09-08T11:36:13.751Z,21.49
2018-09-08T11:37:13.962Z,21.5
2018-09-08T11:38:15.104Z,21.47
2018-09-08T11:39:13.848Z,21.46
2018-09-08T11:40:13.982Z,21.46
2018-09-08T11:41:13.694Z,21.43
2018-09-08T11:42:13.964Z,21.47
2018-09-08T11:43:13.702Z,21.47
2018-09-08T11:44:13.792Z,21.5
2018-09-08T11:45:13.866Z,21.51
2018-09-08T11:46:14.065Z,21.49
2018-09-08T11:47:13.884Z,21.54
2018-09-08T11:48:13.827Z,21.56
2018-09-08T11:49:13.677Z,21.59
2018-09-08T11:50:13.897Z,21.6
2018-09-08T11:51:13.887Z,21.61
2018-09-08T11:52:13.839Z,21.6
2018-09-08T11:53:13.948Z,21.61
2018-09-08T11:54:13.845Z,21.61
2018-09-08T11:55:13.802Z,21.66
2018-09-08T11:56:14.051Z,21.67
2018-09-08T11:57:13.980Z,21.67
2018-09-08T11:58:13.956Z,21.71
2018-09-08T11:59:13.893Z,21.7
2018-09-08T12:00:14.177Z,21.71
2018-09-08T12:01:14.127Z,21.71
2018-09-08T12:02:14.595Z,21.7
2018-09-08T12:03:13.931Z,21.71
2018-09-08T12:04:13.790Z,21.7
2018-09-08T12:05:14.068Z,21.71
2018-09-08T12:06:13.757Z,21.77
2018-09-08T12:07:13.823Z,21.81
2018-09-08T12:08:13.943Z,21.8
2018-09-08T12:09:14.058Z,21.82
2018-09-08T12:10:13.756Z,21.84
2018-09-08T12:11:13.758Z,21.85
2018-09-08T12:12:13.608Z,21.84
2018-09-08T12:13:13.907Z,21.85
2018-09-08T12:14:13.949Z,21.84
2018-09-08T12:15:13.878Z,21.87
2018-09-08T12:16:13.956Z,21.87
2018-09-08T12:17:13.857Z,21.87
2018-09-08T12:18:13.858Z,21.87
2018-09-08T12:19:14.909Z,21.88
2018-09-08T12:20:13.852Z,21.85
2018-09-08T12:21:13.824Z,21.88
2018-09-08T12:22:14.731Z,21.92
2018-09-08T12:23:13.808Z,21.91
2018-09-08T12:24:13.820Z,21.91
2018-09-08T12:25:17.277Z,21.92
2018-09-08T12:26:13.660Z,21.92
2018-09-08T12:27:13.835Z,21.94
2018-09-08T12:28:14.063Z,21.95
2018-09-08T12:29:13.926Z,21.95
2018-09-08T12:30:13.737Z,21.94
2018-09-08T12:31:13.765Z,21.95
2018-09-08T12:32:13.611Z,21.96
2018-09-08T12:33:13.799Z,21.96
2018-09-08T12:34:13.870Z,21.96
2018-09-08T12:35:14.065Z,21.98
2018-09-08T12:36:14.094Z,21.96
2018-09-08T12:37:14.725Z,21.99
2018-09-08T12:38:13.744Z,22.01
2018-09-08T12:39:13.911Z,22.01
2018-09-08T12:40:13.757Z,22.01
2018-09-08T12:41:13.827Z,22.02
2018-09-08T12:42:14.108Z,22.05
2018-09-08T12:43:13.601Z,22.04
2018-09-08T12:44:13.814Z,22.04
2018-09-08T12:45:13.879Z,22.04
2018-09-08T12:46:14.233Z,22.05
2018-09-08T12:47:13.950Z,22.04
2018-09-08T12:48:13.895Z,22.05
2018-09-08T12:49:13.786Z,22.04
2018-09-08T12:50:13.912Z,22.06
2018-09-08T12:51:13.906Z,22.08
2018-09-08T12:52:13.923Z,22.08
2018-09-08T12:53:14.326Z,22.06